sensor_id;sensor_type;location;lat;lon;timestamp;P1;durP1;ratioP1;P2;durP2;ratioP2
16193;SDS011;8204;53.582;10.080;2023-03-18T00:01:32;7.00;;;5.10;;
16193;SDS011;8204;53.582;10.080;2023-03-18T00:04:04;5.73;;;5.23;;
16193;SDS011;8204;53.582;10.080;2023-03-18T00:06:34;5.93;;;5.30;;
16193;SDS011;8204;53.582;10.080;2023-03-18T00:09:05;6.50;;;4.87;;
16193;SDS011;8204;53.582;10.080;2023-03-18T00:11:36;6.10;;;4.47;;
16193;SDS011;8204;53.582;10.080;2023-03-18T00:14:05;8.30;;;5.87;;
16193;SDS011;8204;53.582;10.080;2023-03-18T00:16:34;6.33;;;5.70;;
16193;SDS011;8204;53.582;10.080;2023-03-18T00:19:07;8.60;;;6.30;;
16193;SDS011;8204;53.582;10.080;2023-03-18T00:21:36;6.97;;;6.37;;
16193;SDS011;8204;53.582;10.080;2023-03-18T00:24:05;5.17;;;4.73;;
16193;SDS011;8204;53.582;10.080;2023-03-18T00:26:34;5.17;;;4.70;;
16193;SDS011;8204;53.582;10.080;2023-03-18T00:29:03;5.63;;;5.03;;
16193;SDS011;8204;53.582;10.080;2023-03-18T00:31:33;7.57;;;5.90;;
16193;SDS011;8204;53.582;10.080;2023-03-18T00:34:02;5.63;;;5.17;;
16193;SDS011;8204;53.582;10.080;2023-03-18T00:36:35;5.90;;;5.30;;
16193;SDS011;8204;53.582;10.080;2023-03-18T00:39:04;5.73;;;4.67;;
16193;SDS011;8204;53.582;10.080;2023-03-18T00:41:33;5.63;;;5.23;;
16193;SDS011;8204;53.582;10.080;2023-03-18T00:44:03;5.53;;;5.03;;
16193;SDS011;8204;53.582;10.080;2023-03-18T00:46:33;4.83;;;4.40;;
16193;SDS011;8204;53.582;10.080;2023-03-18T00:49:04;4.83;;;4.40;;
16193;SDS011;8204;53.582;10.080;2023-03-18T00:51:38;7.33;;;5.27;;
16193;SDS011;8204;53.582;10.080;2023-03-18T00:54:08;4.80;;;4.33;;
16193;SDS011;8204;53.582;10.080;2023-03-18T00:56:42;5.60;;;4.90;;
16193;SDS011;8204;53.582;10.080;2023-03-18T00:59:12;6.80;;;5.13;;
16193;SDS011;8204;53.582;10.080;2023-03-18T01:01:41;5.70;;;5.20;;
16193;SDS011;8204;53.582;10.080;2023-03-18T01:04:10;5.77;;;5.30;;
16193;SDS011;8204;53.582;10.080;2023-03-18T01:06:41;5.00;;;4.57;;
16193;SDS011;8204;53.582;10.080;2023-03-18T01:09:12;5.37;;;4.93;;
16193;SDS011;8204;53.582;10.080;2023-03-18T01:11:41;5.47;;;5.00;;
16193;SDS011;8204;53.582;10.080;2023-03-18T01:14:09;5.77;;;5.30;;
16193;SDS011;8204;53.582;10.080;2023-03-18T01:16:39;6.80;;;5.67;;
16193;SDS011;8204;53.582;10.080;2023-03-18T01:19:08;5.83;;;5.17;;
16193;SDS011;8204;53.582;10.080;2023-03-18T01:21:37;5.20;;;4.80;;
16193;SDS011;8204;53.582;10.080;2023-03-18T01:24:09;4.80;;;4.43;;
16193;SDS011;8204;53.582;10.080;2023-03-18T01:26:38;5.80;;;5.37;;
16193;SDS011;8204;53.582;10.080;2023-03-18T01:29:07;6.17;;;4.83;;
16193;SDS011;8204;53.582;10.080;2023-03-18T01:31:37;5.00;;;4.60;;
16193;SDS011;8204;53.582;10.080;2023-03-18T01:34:06;5.63;;;5.13;;
16193;SDS011;8204;53.582;10.080;2023-03-18T01:36:35;5.43;;;4.97;;
16193;SDS011;8204;53.582;10.080;2023-03-18T01:39:04;7.17;;;4.67;;
16193;SDS011;8204;53.582;10.080;2023-03-18T01:41:37;4.83;;;4.43;;
16193;SDS011;8204;53.582;10.080;2023-03-18T01:44:10;5.53;;;5.03;;
16193;SDS011;8204;53.582;10.080;2023-03-18T01:46:40;5.13;;;4.53;;
16193;SDS011;8204;53.582;10.080;2023-03-18T01:49:12;5.20;;;4.70;;
16193;SDS011;8204;53.582;10.080;2023-03-18T01:51:44;5.13;;;4.67;;
16193;SDS011;8204;53.582;10.080;2023-03-18T01:54:16;5.13;;;4.73;;
16193;SDS011;8204;53.582;10.080;2023-03-18T01:56:49;5.20;;;4.80;;
16193;SDS011;8204;53.582;10.080;2023-03-18T01:59:18;5.03;;;4.67;;
16193;SDS011;8204;53.582;10.080;2023-03-18T02:01:50;5.13;;;4.73;;
16193;SDS011;8204;53.582;10.080;2023-03-18T02:04:24;5.00;;;4.47;;
16193;SDS011;8204;53.582;10.080;2023-03-18T02:06:58;5.73;;;4.90;;
16193;SDS011;8204;53.582;10.080;2023-03-18T02:09:27;5.90;;;4.83;;
16193;SDS011;8204;53.582;10.080;2023-03-18T02:11:59;5.07;;;4.67;;
16193;SDS011;8204;53.582;10.080;2023-03-18T02:14:29;5.00;;;4.43;;
16193;SDS011;8204;53.582;10.080;2023-03-18T02:17:00;5.07;;;4.53;;
16193;SDS011;8204;53.582;10.080;2023-03-18T02:22:23;7.57;;;4.60;;
16193;SDS011;8204;53.582;10.080;2023-03-18T02:24:59;6.33;;;5.57;;
16193;SDS011;8204;53.582;10.080;2023-03-18T02:27:42;5.63;;;4.47;;
16193;SDS011;8204;53.582;10.080;2023-03-18T02:30:15;10.13;;;4.83;;
16193;SDS011;8204;53.582;10.080;2023-03-18T02:32:46;5.93;;;5.27;;
16193;SDS011;8204;53.582;10.080;2023-03-18T02:35:18;5.50;;;5.00;;
16193;SDS011;8204;53.582;10.080;2023-03-18T02:37:47;4.53;;;4.23;;
16193;SDS011;8204;53.582;10.080;2023-03-18T02:40:18;5.17;;;4.73;;
16193;SDS011;8204;53.582;10.080;2023-03-18T02:42:51;5.30;;;4.80;;
16193;SDS011;8204;53.582;10.080;2023-03-18T02:45:32;7.43;;;4.80;;
16193;SDS011;8204;53.582;10.080;2023-03-18T02:48:06;5.40;;;4.90;;
16193;SDS011;8204;53.582;10.080;2023-03-18T02:50:38;5.57;;;5.17;;
16193;SDS011;8204;53.582;10.080;2023-03-18T02:53:09;5.50;;;4.90;;
16193;SDS011;8204;53.582;10.080;2023-03-18T02:55:38;4.87;;;4.57;;
16193;SDS011;8204;53.582;10.080;2023-03-18T02:58:10;5.57;;;4.50;;
16193;SDS011;8204;53.582;10.080;2023-03-18T03:00:39;6.93;;;5.07;;
16193;SDS011;8204;53.582;10.080;2023-03-18T03:03:08;5.23;;;4.73;;
16193;SDS011;8204;53.582;10.080;2023-03-18T03:05:37;6.47;;;4.50;;
16193;SDS011;8204;53.582;10.080;2023-03-18T03:08:07;4.60;;;4.30;;
16193;SDS011;8204;53.582;10.080;2023-03-18T03:10:36;4.77;;;4.37;;
16193;SDS011;8204;53.582;10.080;2023-03-18T03:13:05;5.30;;;4.80;;
16193;SDS011;8204;53.582;10.080;2023-03-18T03:15:38;6.23;;;5.63;;
16193;SDS011;8204;53.582;10.080;2023-03-18T03:18:08;5.17;;;4.60;;
16193;SDS011;8204;53.582;10.080;2023-03-18T03:20:37;5.63;;;5.13;;
16193;SDS011;8204;53.582;10.080;2023-03-18T03:23:07;5.90;;;5.40;;
16193;SDS011;8204;53.582;10.080;2023-03-18T03:25:38;5.07;;;4.53;;
16193;SDS011;8204;53.582;10.080;2023-03-18T03:28:09;6.50;;;5.30;;
16193;SDS011;8204;53.582;10.080;2023-03-18T03:30:41;6.17;;;5.57;;
16193;SDS011;8204;53.582;10.080;2023-03-18T03:33:10;5.50;;;5.00;;
16193;SDS011;8204;53.582;10.080;2023-03-18T03:35:39;5.87;;;4.80;;
16193;SDS011;8204;53.582;10.080;2023-03-18T03:38:09;7.60;;;4.97;;
16193;SDS011;8204;53.582;10.080;2023-03-18T03:40:39;5.67;;;5.17;;
16193;SDS011;8204;53.582;10.080;2023-03-18T03:43:09;5.63;;;5.13;;
16193;SDS011;8204;53.582;10.080;2023-03-18T03:45:41;6.20;;;5.70;;
16193;SDS011;8204;53.582;10.080;2023-03-18T03:48:11;5.90;;;5.00;;
16193;SDS011;8204;53.582;10.080;2023-03-18T03:50:40;4.40;;;4.00;;
16193;SDS011;8204;53.582;10.080;2023-03-18T03:53:09;5.97;;;5.37;;
16193;SDS011;8204;53.582;10.080;2023-03-18T03:55:38;5.23;;;4.80;;
16193;SDS011;8204;53.582;10.080;2023-03-18T03:58:07;7.70;;;5.37;;
16193;SDS011;8204;53.582;10.080;2023-03-18T04:00:36;5.73;;;5.33;;
16193;SDS011;8204;53.582;10.080;2023-03-18T04:03:07;5.43;;;5.00;;
16193;SDS011;8204;53.582;10.080;2023-03-18T04:05:36;5.93;;;5.37;;
16193;SDS011;8204;53.582;10.080;2023-03-18T04:08:06;5.17;;;4.77;;
16193;SDS011;8204;53.582;10.080;2023-03-18T04:10:34;6.10;;;4.77;;
16193;SDS011;8204;53.582;10.080;2023-03-18T04:13:03;5.40;;;5.00;;
16193;SDS011;8204;53.582;10.080;2023-03-18T04:15:33;5.57;;;5.07;;
16193;SDS011;8204;53.582;10.080;2023-03-18T04:18:02;6.03;;;5.50;;
16193;SDS011;8204;53.582;10.080;2023-03-18T04:20:35;6.97;;;5.23;;
16193;SDS011;8204;53.582;10.080;2023-03-18T04:23:06;5.77;;;5.23;;
16193;SDS011;8204;53.582;10.080;2023-03-18T04:25:35;6.03;;;5.47;;
16193;SDS011;8204;53.582;10.080;2023-03-18T04:28:04;6.10;;;5.33;;
16193;SDS011;8204;53.582;10.080;2023-03-18T04:30:33;6.77;;;5.50;;
16193;SDS011;8204;53.582;10.080;2023-03-18T04:33:03;7.93;;;6.23;;
16193;SDS011;8204;53.582;10.080;2023-03-18T04:35:31;7.03;;;6.33;;
16193;SDS011;8204;53.582;10.080;2023-03-18T04:38:03;7.03;;;6.43;;
16193;SDS011;8204;53.582;10.080;2023-03-18T04:40:32;8.10;;;6.30;;
16193;SDS011;8204;53.582;10.080;2023-03-18T04:43:00;8.47;;;6.03;;
16193;SDS011;8204;53.582;10.080;2023-03-18T04:45:29;7.60;;;6.07;;
16193;SDS011;8204;53.582;10.080;2023-03-18T04:47:58;5.80;;;5.30;;
16193;SDS011;8204;53.582;10.080;2023-03-18T04:50:27;6.20;;;5.60;;
16193;SDS011;8204;53.582;10.080;2023-03-18T04:52:58;6.67;;;5.97;;
16193;SDS011;8204;53.582;10.080;2023-03-18T04:55:28;6.73;;;5.97;;
16193;SDS011;8204;53.582;10.080;2023-03-18T04:57:56;8.93;;;5.90;;
16193;SDS011;8204;53.582;10.080;2023-03-18T05:00:25;7.40;;;6.17;;
16193;SDS011;8204;53.582;10.080;2023-03-18T05:02:54;6.30;;;5.77;;
16193;SDS011;8204;53.582;10.080;2023-03-18T05:05:23;7.77;;;6.30;;
16193;SDS011;8204;53.582;10.080;2023-03-18T05:07:52;7.60;;;6.27;;
16193;SDS011;8204;53.582;10.080;2023-03-18T05:10:24;9.13;;;6.70;;
16193;SDS011;8204;53.582;10.080;2023-03-18T05:12:52;8.00;;;7.07;;
16193;SDS011;8204;53.582;10.080;2023-03-18T05:15:21;7.10;;;6.50;;
16193;SDS011;8204;53.582;10.080;2023-03-18T05:17:51;9.40;;;7.13;;
16193;SDS011;8204;53.582;10.080;2023-03-18T05:20:21;7.80;;;7.07;;
16193;SDS011;8204;53.582;10.080;2023-03-18T05:22:50;8.47;;;7.37;;
16193;SDS011;8204;53.582;10.080;2023-03-18T05:25:19;12.90;;;8.40;;
16193;SDS011;8204;53.582;10.080;2023-03-18T05:27:51;8.70;;;7.30;;
16193;SDS011;8204;53.582;10.080;2023-03-18T05:30:22;8.00;;;7.30;;
16193;SDS011;8204;53.582;10.080;2023-03-18T05:32:51;8.73;;;7.47;;
16193;SDS011;8204;53.582;10.080;2023-03-18T05:35:20;9.50;;;8.47;;
16193;SDS011;8204;53.582;10.080;2023-03-18T05:37:49;8.50;;;7.70;;
16193;SDS011;8204;53.582;10.080;2023-03-18T05:40:18;8.60;;;7.80;;
16193;SDS011;8204;53.582;10.080;2023-03-18T05:42:46;9.27;;;8.27;;
16193;SDS011;8204;53.582;10.080;2023-03-18T05:45:18;9.27;;;7.73;;
16193;SDS011;8204;53.582;10.080;2023-03-18T05:47:47;10.20;;;8.80;;
16193;SDS011;8204;53.582;10.080;2023-03-18T05:50:16;9.97;;;8.97;;
16193;SDS011;8204;53.582;10.080;2023-03-18T05:52:54;9.97;;;8.97;;
16193;SDS011;8204;53.582;10.080;2023-03-18T05:55:23;9.23;;;8.30;;
16193;SDS011;8204;53.582;10.080;2023-03-18T05:57:52;8.47;;;7.57;;
16193;SDS011;8204;53.582;10.080;2023-03-18T06:00:25;20.93;;;9.37;;
16193;SDS011;8204;53.582;10.080;2023-03-18T06:02:55;9.97;;;9.10;;
16193;SDS011;8204;53.582;10.080;2023-03-18T06:05:26;12.43;;;9.23;;
16193;SDS011;8204;53.582;10.080;2023-03-18T06:07:56;9.47;;;8.50;;
16193;SDS011;8204;53.582;10.080;2023-03-18T06:10:25;10.47;;;9.47;;
16193;SDS011;8204;53.582;10.080;2023-03-18T06:12:54;11.50;;;10.30;;
16193;SDS011;8204;53.582;10.080;2023-03-18T06:15:25;11.43;;;10.23;;
16193;SDS011;8204;53.582;10.080;2023-03-18T06:17:55;11.73;;;10.30;;
16193;SDS011;8204;53.582;10.080;2023-03-18T06:20:23;14.60;;;11.20;;
16193;SDS011;8204;53.582;10.080;2023-03-18T06:22:52;12.60;;;11.43;;
16193;SDS011;8204;53.582;10.080;2023-03-18T06:25:21;12.47;;;10.87;;
16193;SDS011;8204;53.582;10.080;2023-03-18T06:27:51;13.47;;;12.17;;
16193;SDS011;8204;53.582;10.080;2023-03-18T06:30:20;12.60;;;11.30;;
16193;SDS011;8204;53.582;10.080;2023-03-18T06:32:51;11.77;;;10.67;;
16193;SDS011;8204;53.582;10.080;2023-03-18T06:35:21;15.37;;;11.63;;
16193;SDS011;8204;53.582;10.080;2023-03-18T06:37:51;14.90;;;12.63;;
16193;SDS011;8204;53.582;10.080;2023-03-18T06:40:21;12.70;;;11.37;;
16193;SDS011;8204;53.582;10.080;2023-03-18T06:42:51;12.17;;;11.00;;
16193;SDS011;8204;53.582;10.080;2023-03-18T06:45:20;13.50;;;12.20;;
16193;SDS011;8204;53.582;10.080;2023-03-18T06:47:52;14.00;;;11.97;;
16193;SDS011;8204;53.582;10.080;2023-03-18T06:50:21;13.20;;;11.90;;
16193;SDS011;8204;53.582;10.080;2023-03-18T06:52:50;12.87;;;11.57;;
16193;SDS011;8204;53.582;10.080;2023-03-18T06:55:19;14.33;;;12.57;;
16193;SDS011;8204;53.582;10.080;2023-03-18T06:57:48;14.13;;;12.23;;
16193;SDS011;8204;53.582;10.080;2023-03-18T07:00:18;13.93;;;12.53;;
16193;SDS011;8204;53.582;10.080;2023-03-18T07:02:49;14.90;;;13.37;;
16193;SDS011;8204;53.582;10.080;2023-03-18T07:05:21;15.40;;;13.87;;
16193;SDS011;8204;53.582;10.080;2023-03-18T07:07:51;13.27;;;11.83;;
16193;SDS011;8204;53.582;10.080;2023-03-18T07:10:20;14.43;;;12.13;;
16193;SDS011;8204;53.582;10.080;2023-03-18T07:12:52;14.17;;;12.60;;
16193;SDS011;8204;53.582;10.080;2023-03-18T07:15:23;15.27;;;12.73;;
16193;SDS011;8204;53.582;10.080;2023-03-18T07:17:52;13.10;;;11.63;;
16193;SDS011;8204;53.582;10.080;2023-03-18T07:20:23;14.90;;;12.47;;
16193;SDS011;8204;53.582;10.080;2023-03-18T07:22:53;15.17;;;13.17;;
16193;SDS011;8204;53.582;10.080;2023-03-18T07:25:22;17.10;;;12.83;;
16193;SDS011;8204;53.582;10.080;2023-03-18T07:27:51;14.23;;;11.73;;
16193;SDS011;8204;53.582;10.080;2023-03-18T07:30:21;13.90;;;11.53;;
16193;SDS011;8204;53.582;10.080;2023-03-18T07:32:50;14.40;;;13.00;;
16193;SDS011;8204;53.582;10.080;2023-03-18T07:35:20;13.63;;;12.20;;
16193;SDS011;8204;53.582;10.080;2023-03-18T07:37:51;18.57;;;12.90;;
16193;SDS011;8204;53.582;10.080;2023-03-18T07:40:21;17.57;;;13.50;;
16193;SDS011;8204;53.582;10.080;2023-03-18T07:42:50;13.63;;;12.33;;
16193;SDS011;8204;53.582;10.080;2023-03-18T07:45:19;15.27;;;11.73;;
16193;SDS011;8204;53.582;10.080;2023-03-18T07:47:48;18.33;;;14.10;;
16193;SDS011;8204;53.582;10.080;2023-03-18T07:50:17;19.73;;;13.93;;
16193;SDS011;8204;53.582;10.080;2023-03-18T07:52:46;21.50;;;13.70;;
16193;SDS011;8204;53.582;10.080;2023-03-18T07:55:18;17.87;;;13.87;;
16193;SDS011;8204;53.582;10.080;2023-03-18T07:57:47;14.67;;;13.23;;
16193;SDS011;8204;53.582;10.080;2023-03-18T08:00:17;15.43;;;13.80;;
16193;SDS011;8204;53.582;10.080;2023-03-18T08:02:47;15.63;;;14.23;;
16193;SDS011;8204;53.582;10.080;2023-03-18T08:05:15;16.50;;;14.80;;
16193;SDS011;8204;53.582;10.080;2023-03-18T08:07:46;16.67;;;15.03;;
16193;SDS011;8204;53.582;10.080;2023-03-18T08:10:15;15.63;;;14.00;;
16193;SDS011;8204;53.582;10.080;2023-03-18T08:12:47;15.87;;;14.13;;
16193;SDS011;8204;53.582;10.080;2023-03-18T08:15:16;18.30;;;15.00;;
16193;SDS011;8204;53.582;10.080;2023-03-18T08:17:45;16.03;;;14.43;;
16193;SDS011;8204;53.582;10.080;2023-03-18T08:20:13;16.03;;;13.60;;
16193;SDS011;8204;53.582;10.080;2023-03-18T08:22:42;16.87;;;14.50;;
16193;SDS011;8204;53.582;10.080;2023-03-18T08:25:11;17.13;;;15.30;;
16193;SDS011;8204;53.582;10.080;2023-03-18T08:27:44;16.70;;;14.97;;
16193;SDS011;8204;53.582;10.080;2023-03-18T08:30:13;15.10;;;13.70;;
16193;SDS011;8204;53.582;10.080;2023-03-18T08:32:42;17.07;;;15.27;;
16193;SDS011;8204;53.582;10.080;2023-03-18T08:35:11;16.10;;;14.57;;
16193;SDS011;8204;53.582;10.080;2023-03-18T08:37:41;14.93;;;13.47;;
16193;SDS011;8204;53.582;10.080;2023-03-18T08:40:10;14.57;;;13.10;;
16193;SDS011;8204;53.582;10.080;2023-03-18T08:42:40;16.03;;;14.43;;
16193;SDS011;8204;53.582;10.080;2023-03-18T08:45:12;16.60;;;13.67;;
16193;SDS011;8204;53.582;10.080;2023-03-18T08:47:41;14.70;;;13.20;;
16193;SDS011;8204;53.582;10.080;2023-03-18T08:50:12;14.90;;;13.40;;
16193;SDS011;8204;53.582;10.080;2023-03-18T08:52:41;14.97;;;12.93;;
16193;SDS011;8204;53.582;10.080;2023-03-18T08:55:10;14.90;;;13.00;;
16193;SDS011;8204;53.582;10.080;2023-03-18T08:57:39;15.83;;;14.43;;
16193;SDS011;8204;53.582;10.080;2023-03-18T09:00:08;21.80;;;14.43;;
16193;SDS011;8204;53.582;10.080;2023-03-18T09:02:41;16.20;;;13.80;;
16193;SDS011;8204;53.582;10.080;2023-03-18T09:05:11;14.57;;;13.37;;
16193;SDS011;8204;53.582;10.080;2023-03-18T09:07:40;15.07;;;13.63;;
16193;SDS011;8204;53.582;10.080;2023-03-18T09:10:10;14.40;;;13.00;;
16193;SDS011;8204;53.582;10.080;2023-03-18T09:12:42;16.70;;;13.60;;
16193;SDS011;8204;53.582;10.080;2023-03-18T09:15:15;13.73;;;11.93;;
16193;SDS011;8204;53.582;10.080;2023-03-18T09:17:46;14.00;;;12.53;;
16193;SDS011;8204;53.582;10.080;2023-03-18T09:20:16;15.47;;;12.83;;
16193;SDS011;8204;53.582;10.080;2023-03-18T09:22:45;16.20;;;13.73;;
16193;SDS011;8204;53.582;10.080;2023-03-18T09:25:18;14.50;;;13.13;;
16193;SDS011;8204;53.582;10.080;2023-03-18T09:27:47;14.77;;;13.07;;
16193;SDS011;8204;53.582;10.080;2023-03-18T09:30:18;13.90;;;11.90;;
16193;SDS011;8204;53.582;10.080;2023-03-18T09:32:47;14.83;;;13.43;;
16193;SDS011;8204;53.582;10.080;2023-03-18T09:35:16;15.73;;;13.07;;
16193;SDS011;8204;53.582;10.080;2023-03-18T09:37:45;16.73;;;15.17;;
16193;SDS011;8204;53.582;10.080;2023-03-18T09:40:15;19.47;;;13.33;;
16193;SDS011;8204;53.582;10.080;2023-03-18T09:42:51;15.13;;;13.53;;
16193;SDS011;8204;53.582;10.080;2023-03-18T09:45:30;16.57;;;12.57;;
16193;SDS011;8204;53.582;10.080;2023-03-18T09:48:10;14.90;;;13.27;;
16193;SDS011;8204;53.582;10.080;2023-03-18T09:51:00;18.33;;;14.43;;
16193;SDS011;8204;53.582;10.080;2023-03-18T09:53:39;14.77;;;13.40;;
16193;SDS011;8204;53.582;10.080;2023-03-18T09:56:12;16.73;;;13.47;;
16193;SDS011;8204;53.582;10.080;2023-03-18T09:58:45;14.13;;;12.83;;
16193;SDS011;8204;53.582;10.080;2023-03-18T10:01:24;13.30;;;12.17;;
16193;SDS011;8204;53.582;10.080;2023-03-18T10:03:56;16.00;;;14.33;;
16193;SDS011;8204;53.582;10.080;2023-03-18T10:06:30;13.17;;;11.87;;
16193;SDS011;8204;53.582;10.080;2023-03-18T10:09:00;14.63;;;13.13;;
16193;SDS011;8204;53.582;10.080;2023-03-18T10:11:37;13.00;;;11.83;;
16193;SDS011;8204;53.582;10.080;2023-03-18T10:17:07;14.53;;;13.13;;
16193;SDS011;8204;53.582;10.080;2023-03-18T10:19:48;13.17;;;11.87;;
16193;SDS011;8204;53.582;10.080;2023-03-18T10:25:21;13.67;;;12.33;;
16193;SDS011;8204;53.582;10.080;2023-03-18T10:28:01;12.67;;;11.57;;
